• Join FlightAware (Why Join?)
  • Login
  • US Flag 
11:27PM EDT


 

Airport Tracker/Info


-or-


 

Live Flight TrackerFlight Track Log ✈ EGF3395 ✈ 22-Apr-2013 ✈ KCHS - KDFW

Flight Track Log - Related Links

Times and Time Zones

All times are in EDT time to prevent confusion due to time zone crossing. See the EGF3395 flight status page for this flight to view local times or setup timezone preferences in your user account.

Time Position Orientation Groundspeed Altitude Reporting Facility
EDT Latitude Longitude Course Direction KTS MPH feet Rate Location/Type
06:06AM 32.9458 -80.1028 276° West 240 276 2,900  Level Jacksonville Center
06:07AM 32.9333 -80.3144 270° West  Level FlightAware Approximate
06:07AM 32.9497 -80.1869 273° West 283 326 5,000  Level Jacksonville Center
06:08AM 32.9333 -80.4240 270° West  Level FlightAware Approximate
06:08AM 32.9433 -80.2786 265° West 288 331 7,600  Level Jacksonville Center
06:09AM 32.9349 -80.5335 276° West  Level FlightAware Approximate
06:09AM 32.9408 -80.3678 268° West 288 331 10,000  Level Jacksonville Center
06:10AM 32.9448 -80.6424 276° West  Level FlightAware Approximate
06:10AM 32.9386 -80.4619 268° West 282 325 11,700  Level Jacksonville Center
06:11AM 32.9546 -80.7507 276° West  Level FlightAware Approximate
06:11AM 32.9425 -80.5633 273° West 294 338 13,100  Level Jacksonville Center
06:12AM 32.9528 -80.6647 277° West 306 352 14,700 1,560 Climbing Jacksonville Center
06:13AM 32.9356 -80.7664 259° West 312 359 16,300 1,560 Climbing Jacksonville Center
06:14AM 32.9164 -80.8683 257° West 312 359 17,900 1,560 Climbing Jacksonville Center
06:15AM 32.8992 -80.9678 258° West 312 359 19,500 1,620 Climbing Jacksonville Center
06:16AM 32.8819 -81.0694 259° West 317 365 21,200 1,500 Climbing Jacksonville Center
06:17AM 32.8644 -81.1689 258° West 317 365 22,600 1,680 Climbing Jacksonville Center
06:18AM 32.8492 -81.2631 259° West 312 359 24,600 1,800 Climbing Jacksonville Center
06:20AM 32.8094 -81.4733 257° West 275 316 28,600 1,560 Climbing Atlanta Center
06:21AM 32.7967 -81.5603 260° West 275 316 30,000 1,500 Climbing Atlanta Center
06:22AM 32.7775 -81.6572 257° West 275 316 31,700 1,380 Climbing Atlanta Center
06:23AM 32.7606 -81.7442 257° West 275 316 32,800 960 Climbing Atlanta Center
06:24AM 32.7453 -81.8283 258° West 275 316 33,700 900 Climbing Atlanta Center
06:25AM 32.7303 -81.9203 259° West 281 323 34,700 900 Climbing Atlanta Center
06:26AM 32.7128 -82.0069 257° West 281 323 35,600 600 Climbing Atlanta Center
06:27AM 32.6956 -82.0989 257° West 281 323 36,000 180 Climbing Atlanta Center
06:28AM 32.6783 -82.1953 258° West 286 329 36,000  Level Atlanta Center
06:29AM 32.6589 -82.2994 258° West 303 349 36,000  Level Atlanta Center
06:30AM 32.6397 -82.4108 258° West 329 379 36,000  Level Atlanta Center
06:31AM 32.6203 -82.5247 259° West 342 394 36,000  Level Atlanta Center
06:32AM 32.5986 -82.6333 257° West 342 394 36,000  Level Atlanta Center
06:33AM 32.5767 -82.7447 257° West 347 399 36,000  Level Atlanta Center
06:34AM 32.5592 -82.8583 260° West 347 399 36,000  Level Atlanta Center
06:35AM 32.5517 -82.9594 265° West 352 405 36,000  Level Atlanta Center
06:36AM 32.5403 -83.0756 263° West 352 405 36,000  Level Atlanta Center
06:37AM 32.5347 -83.1936 267° West 352 405 36,000  Level Atlanta Center
06:38AM 32.5231 -83.3072 263° West 352 405 36,000  Level Atlanta Center
06:39AM 32.5111 -83.4256 263° West 357 411 36,000  Level Atlanta Center
06:40AM 32.5033 -83.5389 265° West 357 411 36,000  Level Atlanta Center
06:41AM 32.4911 -83.6547 263° West 357 411 36,000  Level Atlanta Center
06:42AM 32.4831 -83.7703 265° West 352 405 36,000  Level Atlanta Center
06:43AM 32.4708 -83.8836 263° West 352 405 36,000  Level Atlanta Center
06:44AM 32.4606 -83.9994 264° West 352 405 36,000  Level Atlanta Center
06:45AM 32.4500 -84.1128 264° West 352 405 36,000  Level Atlanta Center
06:46AM 32.4372 -84.2283 263° West 352 405 36,000  Level Atlanta Center
06:47AM 32.4267 -84.3439 264° West 352 405 36,000  Level Atlanta Center
06:48AM 32.4158 -84.4597 264° West 352 405 36,000  Level Atlanta Center
06:49AM 32.4050 -84.5728 264° West 352 405 36,000  Level Atlanta Center
06:50AM 32.3942 -84.6883 264° West 352 405 36,000  Level Atlanta Center
06:51AM 32.3831 -84.7989 263° West 352 405 36,000  Level Atlanta Center
06:52AM 32.3678 -84.9069 261° West 346 398 36,000  Level Atlanta Center
06:53AM 32.3606 -85.0225 266° West 346 398 36,000  Level Atlanta Center
06:54AM 32.3469 -85.1378 262° West 351 404 36,000  Level Atlanta Center
06:55AM 32.3333 -85.2508 262° West 351 404 36,000  Level Atlanta Center
06:56AM 32.3239 -85.3636 264° West 351 404 36,000  Level Atlanta Center
06:57AM 32.3122 -85.4767 263° West 351 404 36,000  Level Atlanta Center
06:58AM 32.3003 -85.5919 263° West 351 404 36,000  Level Atlanta Center
06:59AM 32.2883 -85.7097 263° West 351 404 36,000  Level Atlanta Center
07:00AM 32.2722 -85.8247 261° West 356 410 36,000  Level Atlanta Center
07:01AM 32.2642 -85.9350 265° West 356 410 36,000  Level Atlanta Center
07:02AM 32.2478 -86.0525 261° West 356 410 36,000  Level Atlanta Center
07:03AM 32.2353 -86.1775 263° West 356 410 36,000  Level Atlanta Center
07:04AM 32.2314 -86.2831 268° West 356 410 36,000  Level Atlanta Center
07:05AM 32.2253 -86.3883 266° West 361 415 36,000  Level Atlanta Center
07:06AM 32.2414 -86.5167 278° West 355 409 36,000  Level Atlanta Center
07:07AM 32.2475 -86.6272 274° West 355 409 36,000  Level Atlanta Center
07:08AM 32.2533 -86.7528 273° West 350 403 36,000  Level Atlanta Center
07:09AM 32.2611 -86.8633 275° West 350 403 36,000  Level Atlanta Center
07:10AM 32.2669 -86.9767 274° West 350 403 36,000  Level Atlanta Center
07:11AM 32.2764 -87.0947 275° West 350 403 36,000  Level Atlanta Center
07:12AM 32.2861 -87.2058 276° West 350 403 36,000  Level Atlanta Center
07:13AM 32.2917 -87.3189 273° West 350 403 36,000  Level Atlanta Center
07:14AM 32.3011 -87.4275 276° West 355 409 36,000  Level Atlanta Center
07:15AM 32.3086 -87.5408 275° West 355 409 36,000  Level Atlanta Center
07:16AM 32.3156 -87.6564 274° West 355 409 36,000  Level Atlanta Center
07:17AM 32.3228 -87.7697 274° West 349 402 36,000  Level Atlanta Center
07:20AM 32.3372 -88.0461 274° West 346 398 36,000  Level Memphis Center
07:21AM 32.3436 -88.1592 274° West 346 398 36,000  Level Memphis Center
07:22AM 32.3497 -88.2769 274° West 346 398 36,000  Level Memphis Center
07:23AM 32.3558 -88.3925 274° West 346 398 36,000  Level Memphis Center
07:24AM 32.3617 -88.5053 274° West 346 398 36,000  Level Memphis Center
07:25AM 32.3672 -88.6061 274° West 346 398 36,000  Level Memphis Center
07:26AM 32.3750 -88.7217 275° West 346 398 36,000  Level Memphis Center
07:27AM 32.3808 -88.8369 273° West 346 398 36,000  Level Memphis Center
07:28AM 32.3864 -88.9550 273° West 351 404 36,000  Level Memphis Center
07:29AM 32.3958 -89.0706 276° West 351 404 36,000  Level Memphis Center
07:30AM 32.3992 -89.1886 272° West 356 410 36,000  Level Memphis Center
07:31AM 32.4064 -89.3042 274° West 356 410 36,000  Level Memphis Center
07:32AM 32.4094 -89.4197 272° West 356 410 36,000  Level Memphis Center
07:33AM 32.4167 -89.5353 274° West 356 410 36,000  Level Memphis Center
07:34AM 32.4236 -89.6558 274° West 356 410 36,000  Level Memphis Center
07:35AM 32.4283 -89.7717 273° West 361 415 36,000  Level Memphis Center
07:36AM 32.4331 -89.8872 273° West 361 415 36,000  Level Memphis Center
07:37AM 32.4375 -90.0078 273° West 361 415 36,000  Level Memphis Center
07:38AM 32.4461 -90.1258 275° West 361 415 36,000  Level Memphis Center
07:39AM 32.4506 -90.2442 273° West 361 415 36,000  Level Memphis Center
07:40AM 32.4547 -90.3622 272° West 361 415 36,000  Level Memphis Center
07:41AM 32.4589 -90.4828 272° West 361 415 36,000  Level Memphis Center
07:42AM 32.4650 -90.5986 274° West 361 415 36,000  Level Memphis Center
07:43AM 32.4689 -90.7144 272° West 361 415 36,000 -180 Level Memphis Center
07:44AM 32.4728 -90.8300 272° West 361 415 35,700 -540 Descending Memphis Center
07:45AM 32.4783 -90.9656 273° West 366 421 35,000 -600 Descending Memphis Center
07:46AM 32.4819 -91.0864 272° West 366 421 34,500 -540 Descending Memphis Center
07:47AM 32.4875 -91.2019 273° West 366 421 34,000 -300 Descending Memphis Center
07:48AM 32.4931 -91.3131 273° West 356 410 34,000  Level Memphis Center
07:49AM 32.4994 -91.4825 273° West 325 374 34,000  Level Fort Worth Center
07:50AM 32.5025 -91.5931 272° West 330 380 34,000  Level Fort Worth Center
07:51AM 32.5078 -91.7061 273° West 335 386 34,000  Level Fort Worth Center
07:52AM 32.5106 -91.8142 272° West 335 386 34,000  Level Fort Worth Center
07:53AM 32.5156 -91.9297 273° West 345 397 34,000  Level Fort Worth Center
07:54AM 32.5181 -92.0381 272° West 345 397 34,000  Level Fort Worth Center
07:55AM 32.5106 -92.1517 266° West 345 397 34,000  Level Fort Worth Center
07:56AM 32.5025 -92.2631 265° West 345 397 34,000  Level Fort Worth Center
07:57AM 32.4947 -92.3767 265° West 351 404 34,000  Level Fort Worth Center
07:58AM 32.4903 -92.4803 267° West 344 396 34,000  Level Fort Worth Center
07:59AM 32.4819 -92.5892 265° West 334 384 34,000  Level Fort Worth Center
08:00AM 32.4717 -92.7006 264° West 334 384 34,000  Level Fort Worth Center
08:01AM 32.4650 -92.8042 266° West 334 384 34,000  Level Fort Worth Center
08:02AM 32.4567 -92.9156 265° West 334 384 34,000  Level Fort Worth Center
08:03AM 32.4458 -93.0267 263° West 334 384 34,000  Level Fort Worth Center
08:04AM 32.4372 -93.1356 265° West 334 384 34,000  Level Fort Worth Center
08:05AM 32.4303 -93.2417 266° West 334 384 34,000  Level Fort Worth Center
08:06AM 32.4192 -93.3503 263° West 334 384 34,000  Level Fort Worth Center
08:07AM 32.4100 -93.4567 264° West 334 384 34,000  Level Fort Worth Center
08:08AM 32.4031 -93.5628 266° West 334 384 34,000  Level Fort Worth Center
08:09AM 32.3975 -93.6614 266° West 334 384 34,000  Level Fort Worth Center
08:10AM 32.4047 -93.7644 275° West 328 377 34,000  Level Fort Worth Center
08:11AM 32.4061 -93.8800 271° West 334 384 34,000  Level Fort Worth Center
08:12AM 32.4069 -93.9906 271° West 334 384 34,000  Level Fort Worth Center
08:13AM 32.4078 -94.0964 271° West 334 384 34,000  Level Fort Worth Center
08:14AM 32.4086 -94.2094 271° West 334 384 34,000  Level Fort Worth Center
08:15AM 32.4094 -94.3253 271° West 340 391 34,000  Level Fort Worth Center
08:16AM 32.4119 -94.4358 272° West 346 398 34,000  Level Fort Worth Center
08:17AM 32.4147 -94.5464 272° West 341 392 34,000  Level Fort Worth Center
08:18AM 32.4150 -94.6597 270° West 346 398 34,000  Level Fort Worth Center
08:19AM 32.4111 -94.7706 268° West 346 398 34,000  Level Fort Worth Center
08:20AM 32.3969 -94.8892 262° West 352 405 34,000 -660 Level Fort Worth Center
08:21AM 32.3764 -95.0175 259° West 357 411 32,700 -1,440 Descending Fort Worth Center
08:22AM 32.3600 -95.1408 261° West 376 433 31,200 -1,560 Descending Fort Worth Center
08:23AM 32.3392 -95.2717 259° West 395 455 29,600 -1,740 Descending Fort Worth Center
08:24AM 32.3164 -95.4025 258° West 402 463 27,800 -1,860 Descending Fort Worth Center
08:25AM 32.2975 -95.5308 260° West 413 475 25,900 -1,860 Descending Fort Worth Center
08:26AM 32.2764 -95.6614 259° West 408 470 24,100 -1,860 Descending Fort Worth Center
08:27AM 32.2572 -95.7869 260° West 408 470 22,200 -1,860 Descending Fort Worth Center
08:28AM 32.2358 -95.9128 259° West 402 463 20,400 -1,740 Descending Fort Worth Center
08:29AM 32.2244 -96.0258 263° West 388 447 18,800 -1,800 Descending Fort Worth Center
08:30AM 32.2633 -96.1481 291° West 365 420 16,900 -1,800 Descending Fort Worth Center
08:31AM 32.3019 -96.2433 296° West 365 420 15,200 -1,740 Descending Fort Worth Center
08:32AM 32.3447 -96.3536 295° West 345 397 13,500 -1,560 Descending Fort Worth Center
08:33AM 32.3786 -96.4369 296° West 335 386 12,100 -1,260 Descending Fort Worth Center
08:34AM 32.4397 -96.5222 310° West 309 356 11,000 -600 Descending Fort Worth Center
08:35AM 32.4903 -96.5808 316° Northwest 289 333 11,000  Level Fort Worth Center
08:36AM 32.5492 -96.6494 316° Northwest 276 318 11,000  Level Fort Worth Center
08:37AM 32.5956 -96.7058 314° West 271 312 11,000  Level Fort Worth Center
08:38AM 32.6564 -96.7767 316° Northwest 271 312 11,000  Level Fort Worth Center
08:39AM 32.6833 -96.8167 309° West 249 287 11,000  Level Dallas / Fort Worth TRACON
08:40AM 32.7333 -96.8667 320° Northwest 229 264 11,000  Level Dallas / Fort Worth TRACON
08:41AM 32.7833 -96.9000 331° Northwest 232 267 11,000 -480 Level Dallas / Fort Worth TRACON
08:42AM 32.8500 -96.9000 360° North 234 269 10,100 -1,380 Descending Dallas / Fort Worth TRACON
08:43AM 32.9167 -96.9000 360° North 246 283 8,300 -1,980 Descending Dallas / Fort Worth TRACON
08:44AM 32.9667 -96.9167 344° North 234 269 6,400 -1,200 Descending Dallas / Fort Worth TRACON
08:45AM 33.0333 -96.9333 348° North 224 258 6,000 -720 Descending Dallas / Fort Worth TRACON
08:46AM 33.1000 -96.9333 360° North 227 261 5,100 -1,440 Descending Dallas / Fort Worth TRACON
08:47AM 33.1500 -96.9667 331° Northwest 229 264 3,300 -1,080 Descending Dallas / Fort Worth TRACON
08:48AM 33.1167 -97.0167 231° Southwest 166 191 3,000 -180 Descending Dallas / Fort Worth TRACON
08:49AM 33.0833 -97.0333 203° Southwest 158 182 3,000 -60 Level Dallas / Fort Worth TRACON
08:50AM 33.0333 -97.0333 180° South 159 183 2,900 -120 Descending Dallas / Fort Worth TRACON